sensor_id;sensor_type;location;lat;lon;timestamp;P1;durP1;ratioP1;P2;durP2;ratioP2
19547;SDS011;9919;58.014;11.826;2024-01-30T00:00:35;2.08;;;1.70;;
19547;SDS011;9919;58.014;11.826;2024-01-30T00:02:36;4.95;;;2.08;;
19547;SDS011;9919;58.014;11.826;2024-01-30T00:04:38;4.15;;;1.70;;
19547;SDS011;9919;58.014;11.826;2024-01-30T00:06:39;3.75;;;1.55;;
19547;SDS011;9919;58.014;11.826;2024-01-30T00:08:40;2.90;;;1.75;;
19547;SDS011;9919;58.014;11.826;2024-01-30T00:10:42;3.47;;;1.90;;
19547;SDS011;9919;58.014;11.826;2024-01-30T00:12:43;3.35;;;2.17;;
19547;SDS011;9919;58.014;11.826;2024-01-30T00:14:47;3.58;;;1.95;;
19547;SDS011;9919;58.014;11.826;2024-01-30T00:16:50;5.93;;;2.50;;
19547;SDS011;9919;58.014;11.826;2024-01-30T00:18:51;6.22;;;2.10;;
19547;SDS011;9919;58.014;11.826;2024-01-30T00:20:54;2.67;;;1.90;;
19547;SDS011;9919;58.014;11.826;2024-01-30T00:22:57;3.80;;;1.80;;
19547;SDS011;9919;58.014;11.826;2024-01-30T00:24:58;5.97;;;2.42;;
19547;SDS011;9919;58.014;11.826;2024-01-30T00:27:00;2.83;;;1.67;;
19547;SDS011;9919;58.014;11.826;2024-01-30T00:29:01;6.47;;;3.03;;
19547;SDS011;9919;58.014;11.826;2024-01-30T00:31:05;6.25;;;2.20;;
19547;SDS011;9919;58.014;11.826;2024-01-30T00:33:06;7.93;;;2.60;;
19547;SDS011;9919;58.014;11.826;2024-01-30T00:35:08;2.20;;;1.90;;
19547;SDS011;9919;58.014;11.826;2024-01-30T00:37:10;3.58;;;1.88;;
19547;SDS011;9919;58.014;11.826;2024-01-30T00:39:12;3.28;;;2.58;;
19547;SDS011;9919;58.014;11.826;2024-01-30T00:41:17;3.88;;;2.45;;
19547;SDS011;9919;58.014;11.826;2024-01-30T00:43:19;4.63;;;2.08;;
19547;SDS011;9919;58.014;11.826;2024-01-30T00:45:21;5.10;;;1.80;;
19547;SDS011;9919;58.014;11.826;2024-01-30T00:47:22;2.70;;;1.60;;
19547;SDS011;9919;58.014;11.826;2024-01-30T00:49:24;4.40;;;2.45;;
19547;SDS011;9919;58.014;11.826;2024-01-30T00:51:27;4.32;;;1.98;;
19547;SDS011;9919;58.014;11.826;2024-01-30T00:53:31;3.15;;;1.80;;
19547;SDS011;9919;58.014;11.826;2024-01-30T00:55:32;3.80;;;2.35;;
19547;SDS011;9919;58.014;11.826;2024-01-30T00:57:33;3.03;;;2.13;;
19547;SDS011;9919;58.014;11.826;2024-01-30T00:59:35;2.67;;;2.10;;
19547;SDS011;9919;58.014;11.826;2024-01-30T01:01:37;2.92;;;2.17;;
19547;SDS011;9919;58.014;11.826;2024-01-30T01:03:42;2.05;;;1.77;;
19547;SDS011;9919;58.014;11.826;2024-01-30T01:05:45;4.85;;;2.22;;
19547;SDS011;9919;58.014;11.826;2024-01-30T01:07:47;3.10;;;1.77;;
19547;SDS011;9919;58.014;11.826;2024-01-30T01:09:49;3.05;;;1.73;;
19547;SDS011;9919;58.014;11.826;2024-01-30T01:11:51;4.63;;;2.15;;
19547;SDS011;9919;58.014;11.826;2024-01-30T01:13:52;3.85;;;1.92;;
19547;SDS011;9919;58.014;11.826;2024-01-30T01:15:53;2.42;;;1.80;;
19547;SDS011;9919;58.014;11.826;2024-01-30T01:17:55;3.05;;;2.08;;
19547;SDS011;9919;58.014;11.826;2024-01-30T01:19:56;2.72;;;1.50;;
19547;SDS011;9919;58.014;11.826;2024-01-30T01:21:58;3.58;;;1.95;;
19547;SDS011;9919;58.014;11.826;2024-01-30T01:24:00;4.28;;;2.20;;
19547;SDS011;9919;58.014;11.826;2024-01-30T01:26:02;2.90;;;2.00;;
19547;SDS011;9919;58.014;11.826;2024-01-30T01:28:05;2.65;;;1.80;;
19547;SDS011;9919;58.014;11.826;2024-01-30T01:30:10;6.72;;;2.35;;
19547;SDS011;9919;58.014;11.826;2024-01-30T01:32:18;3.17;;;1.60;;
19547;SDS011;9919;58.014;11.826;2024-01-30T01:34:21;4.28;;;2.17;;
19547;SDS011;9919;58.014;11.826;2024-01-30T01:36:26;5.85;;;2.78;;
19547;SDS011;9919;58.014;11.826;2024-01-30T01:38:28;2.92;;;2.55;;
19547;SDS011;9919;58.014;11.826;2024-01-30T01:40:29;2.40;;;1.83;;
19547;SDS011;9919;58.014;11.826;2024-01-30T01:42:31;4.75;;;2.00;;
19547;SDS011;9919;58.014;11.826;2024-01-30T01:44:32;2.58;;;1.77;;
19547;SDS011;9919;58.014;11.826;2024-01-30T01:46:34;3.08;;;1.92;;
19547;SDS011;9919;58.014;11.826;2024-01-30T01:48:36;2.25;;;1.95;;
19547;SDS011;9919;58.014;11.826;2024-01-30T01:50:40;3.15;;;2.38;;
19547;SDS011;9919;58.014;11.826;2024-01-30T01:52:42;2.30;;;1.80;;
19547;SDS011;9919;58.014;11.826;2024-01-30T01:54:44;2.97;;;2.05;;
19547;SDS011;9919;58.014;11.826;2024-01-30T01:56:46;4.07;;;2.00;;
19547;SDS011;9919;58.014;11.826;2024-01-30T01:58:48;4.43;;;2.60;;
19547;SDS011;9919;58.014;11.826;2024-01-30T02:00:50;2.83;;;1.80;;
19547;SDS011;9919;58.014;11.826;2024-01-30T02:02:53;3.83;;;2.13;;
19547;SDS011;9919;58.014;11.826;2024-01-30T02:04:56;2.50;;;1.92;;
19547;SDS011;9919;58.014;11.826;2024-01-30T02:06:58;3.58;;;1.70;;
19547;SDS011;9919;58.014;11.826;2024-01-30T02:09:00;2.80;;;1.48;;
19547;SDS011;9919;58.014;11.826;2024-01-30T02:11:01;4.53;;;2.05;;
19547;SDS011;9919;58.014;11.826;2024-01-30T02:13:05;2.00;;;1.58;;
19547;SDS011;9919;58.014;11.826;2024-01-30T02:15:06;3.67;;;2.17;;
19547;SDS011;9919;58.014;11.826;2024-01-30T02:17:08;1.70;;;1.60;;
19547;SDS011;9919;58.014;11.826;2024-01-30T02:19:09;2.92;;;1.85;;
19547;SDS011;9919;58.014;11.826;2024-01-30T02:21:11;4.28;;;1.92;;
19547;SDS011;9919;58.014;11.826;2024-01-30T02:23:16;3.05;;;1.67;;
19547;SDS011;9919;58.014;11.826;2024-01-30T02:25:17;1.73;;;1.63;;
19547;SDS011;9919;58.014;11.826;2024-01-30T02:27:19;3.05;;;2.00;;
19547;SDS011;9919;58.014;11.826;2024-01-30T02:29:21;2.55;;;1.55;;
19547;SDS011;9919;58.014;11.826;2024-01-30T02:31:22;3.25;;;1.65;;
19547;SDS011;9919;58.014;11.826;2024-01-30T02:33:26;3.22;;;1.48;;
19547;SDS011;9919;58.014;11.826;2024-01-30T02:35:27;2.78;;;1.77;;
19547;SDS011;9919;58.014;11.826;2024-01-30T02:37:29;2.42;;;1.77;;
19547;SDS011;9919;58.014;11.826;2024-01-30T02:39:30;2.67;;;1.63;;
19547;SDS011;9919;58.014;11.826;2024-01-30T02:41:32;2.05;;;1.60;;
19547;SDS011;9919;58.014;11.826;2024-01-30T02:43:33;1.52;;;1.42;;
19547;SDS011;9919;58.014;11.826;2024-01-30T02:45:34;3.00;;;1.83;;
19547;SDS011;9919;58.014;11.826;2024-01-30T02:47:36;3.30;;;1.80;;
19547;SDS011;9919;58.014;11.826;2024-01-30T02:49:38;2.10;;;1.92;;
19547;SDS011;9919;58.014;11.826;2024-01-30T02:51:40;3.35;;;2.28;;
19547;SDS011;9919;58.014;11.826;2024-01-30T02:53:41;2.78;;;1.67;;
19547;SDS011;9919;58.014;11.826;2024-01-30T02:55:42;2.78;;;1.48;;
19547;SDS011;9919;58.014;11.826;2024-01-30T02:57:45;4.57;;;1.80;;
19547;SDS011;9919;58.014;11.826;2024-01-30T02:59:46;2.95;;;2.25;;
19547;SDS011;9919;58.014;11.826;2024-01-30T03:01:48;3.25;;;1.73;;
19547;SDS011;9919;58.014;11.826;2024-01-30T03:03:49;2.65;;;1.98;;
19547;SDS011;9919;58.014;11.826;2024-01-30T03:05:51;2.58;;;1.95;;
19547;SDS011;9919;58.014;11.826;2024-01-30T03:07:52;2.30;;;1.90;;
19547;SDS011;9919;58.014;11.826;2024-01-30T03:09:55;2.20;;;2.00;;
19547;SDS011;9919;58.014;11.826;2024-01-30T03:11:57;4.15;;;1.77;;
19547;SDS011;9919;58.014;11.826;2024-01-30T03:13:59;2.85;;;1.95;;
19547;SDS011;9919;58.014;11.826;2024-01-30T03:16:00;2.65;;;1.42;;
19547;SDS011;9919;58.014;11.826;2024-01-30T03:18:02;2.75;;;1.80;;
19547;SDS011;9919;58.014;11.826;2024-01-30T03:20:04;4.95;;;2.20;;
19547;SDS011;9919;58.014;11.826;2024-01-30T03:22:07;2.00;;;1.77;;
19547;SDS011;9919;58.014;11.826;2024-01-30T03:24:08;2.58;;;2.35;;
19547;SDS011;9919;58.014;11.826;2024-01-30T03:26:10;1.92;;;1.70;;
19547;SDS011;9919;58.014;11.826;2024-01-30T03:28:13;1.70;;;1.60;;
19547;SDS011;9919;58.014;11.826;2024-01-30T03:30:14;1.75;;;1.55;;
19547;SDS011;9919;58.014;11.826;2024-01-30T03:32:16;2.75;;;1.50;;
19547;SDS011;9919;58.014;11.826;2024-01-30T03:34:17;1.60;;;1.50;;
19547;SDS011;9919;58.014;11.826;2024-01-30T03:36:19;1.75;;;1.65;;
19547;SDS011;9919;58.014;11.826;2024-01-30T03:38:20;2.92;;;1.90;;
19547;SDS011;9919;58.014;11.826;2024-01-30T03:40:23;2.40;;;1.58;;
19547;SDS011;9919;58.014;11.826;2024-01-30T03:42:25;1.98;;;1.75;;
19547;SDS011;9919;58.014;11.826;2024-01-30T03:44:28;2.47;;;1.40;;
19547;SDS011;9919;58.014;11.826;2024-01-30T03:46:29;1.77;;;1.67;;
19547;SDS011;9919;58.014;11.826;2024-01-30T03:48:31;1.65;;;1.40;;
19547;SDS011;9919;58.014;11.826;2024-01-30T03:50:33;3.20;;;1.67;;
19547;SDS011;9919;58.014;11.826;2024-01-30T03:52:34;2.40;;;1.88;;
19547;SDS011;9919;58.014;11.826;2024-01-30T03:54:35;3.05;;;1.63;;
19547;SDS011;9919;58.014;11.826;2024-01-30T03:56:37;2.28;;;1.90;;
19547;SDS011;9919;58.014;11.826;2024-01-30T03:58:38;2.03;;;1.65;;
19547;SDS011;9919;58.014;11.826;2024-01-30T04:00:40;3.45;;;1.95;;
19547;SDS011;9919;58.014;11.826;2024-01-30T04:02:41;4.05;;;2.15;;
19547;SDS011;9919;58.014;11.826;2024-01-30T04:04:43;2.72;;;1.13;;
19547;SDS011;9919;58.014;11.826;2024-01-30T04:06:45;1.90;;;1.70;;
19547;SDS011;9919;58.014;11.826;2024-01-30T04:08:47;1.92;;;1.58;;
19547;SDS011;9919;58.014;11.826;2024-01-30T04:10:48;3.17;;;1.33;;
19547;SDS011;9919;58.014;11.826;2024-01-30T04:12:51;1.63;;;1.25;;
19547;SDS011;9919;58.014;11.826;2024-01-30T04:14:53;2.90;;;1.60;;
19547;SDS011;9919;58.014;11.826;2024-01-30T04:16:55;2.13;;;1.80;;
19547;SDS011;9919;58.014;11.826;2024-01-30T04:18:59;2.60;;;2.08;;
19547;SDS011;9919;58.014;11.826;2024-01-30T04:21:01;2.05;;;1.73;;
19547;SDS011;9919;58.014;11.826;2024-01-30T04:23:03;1.55;;;1.45;;
19547;SDS011;9919;58.014;11.826;2024-01-30T04:25:05;1.48;;;1.15;;
19547;SDS011;9919;58.014;11.826;2024-01-30T04:27:07;2.92;;;1.85;;
19547;SDS011;9919;58.014;11.826;2024-01-30T04:29:09;1.50;;;1.38;;
19547;SDS011;9919;58.014;11.826;2024-01-30T04:31:12;3.08;;;1.90;;
19547;SDS011;9919;58.014;11.826;2024-01-30T04:33:13;1.40;;;1.30;;
19547;SDS011;9919;58.014;11.826;2024-01-30T04:35:15;1.52;;;1.40;;
19547;SDS011;9919;58.014;11.826;2024-01-30T04:37:16;1.23;;;1.10;;
19547;SDS011;9919;58.014;11.826;2024-01-30T04:39:18;1.60;;;1.50;;
19547;SDS011;9919;58.014;11.826;2024-01-30T04:41:19;2.15;;;1.73;;
19547;SDS011;9919;58.014;11.826;2024-01-30T04:43:20;1.40;;;1.30;;
19547;SDS011;9919;58.014;11.826;2024-01-30T04:45:23;2.08;;;1.75;;
19547;SDS011;9919;58.014;11.826;2024-01-30T04:47:24;1.70;;;1.60;;
19547;SDS011;9919;58.014;11.826;2024-01-30T04:49:26;1.45;;;1.35;;
19547;SDS011;9919;58.014;11.826;2024-01-30T04:51:29;1.83;;;1.73;;
19547;SDS011;9919;58.014;11.826;2024-01-30T04:53:30;2.70;;;1.80;;
19547;SDS011;9919;58.014;11.826;2024-01-30T04:55:32;2.00;;;1.58;;
19547;SDS011;9919;58.014;11.826;2024-01-30T04:57:33;2.22;;;1.55;;
19547;SDS011;9919;58.014;11.826;2024-01-30T04:59:35;1.48;;;1.38;;
19547;SDS011;9919;58.014;11.826;2024-01-30T05:01:36;1.60;;;1.00;;
19547;SDS011;9919;58.014;11.826;2024-01-30T05:03:39;1.52;;;1.30;;
19547;SDS011;9919;58.014;11.826;2024-01-30T05:05:41;2.22;;;1.65;;
19547;SDS011;9919;58.014;11.826;2024-01-30T05:07:42;2.08;;;1.90;;
19547;SDS011;9919;58.014;11.826;2024-01-30T05:09:44;1.85;;;1.75;;
19547;SDS011;9919;58.014;11.826;2024-01-30T05:11:46;1.27;;;1.17;;
19547;SDS011;9919;58.014;11.826;2024-01-30T05:13:47;1.65;;;1.50;;
19547;SDS011;9919;58.014;11.826;2024-01-30T05:15:48;1.60;;;1.50;;
19547;SDS011;9919;58.014;11.826;2024-01-30T05:17:50;2.05;;;1.60;;
19547;SDS011;9919;58.014;11.826;2024-01-30T05:19:51;1.67;;;1.45;;
19547;SDS011;9919;58.014;11.826;2024-01-30T05:21:53;1.55;;;1.42;;
19547;SDS011;9919;58.014;11.826;2024-01-30T05:23:55;1.73;;;1.60;;
19547;SDS011;9919;58.014;11.826;2024-01-30T05:26:00;2.20;;;2.00;;
19547;SDS011;9919;58.014;11.826;2024-01-30T05:28:02;1.50;;;1.40;;
19547;SDS011;9919;58.014;11.826;2024-01-30T05:30:06;1.58;;;1.48;;
19547;SDS011;9919;58.014;11.826;2024-01-30T05:32:08;2.05;;;1.85;;
19547;SDS011;9919;58.014;11.826;2024-01-30T05:34:10;2.47;;;1.83;;
19547;SDS011;9919;58.014;11.826;2024-01-30T05:36:13;1.52;;;1.42;;
19547;SDS011;9919;58.014;11.826;2024-01-30T05:38:16;2.03;;;1.55;;
19547;SDS011;9919;58.014;11.826;2024-01-30T05:40:17;2.42;;;1.70;;
19547;SDS011;9919;58.014;11.826;2024-01-30T05:42:18;1.70;;;1.55;;
19547;SDS011;9919;58.014;11.826;2024-01-30T05:44:20;1.55;;;1.45;;
19547;SDS011;9919;58.014;11.826;2024-01-30T05:46:21;2.22;;;1.67;;
19547;SDS011;9919;58.014;11.826;2024-01-30T05:48:23;1.98;;;1.70;;
19547;SDS011;9919;58.014;11.826;2024-01-30T05:50:24;2.30;;;1.77;;
19547;SDS011;9919;58.014;11.826;2024-01-30T05:52:29;2.40;;;1.33;;
19547;SDS011;9919;58.014;11.826;2024-01-30T05:54:30;1.40;;;1.30;;
19547;SDS011;9919;58.014;11.826;2024-01-30T05:56:33;1.83;;;1.52;;
19547;SDS011;9919;58.014;11.826;2024-01-30T05:58:35;1.25;;;0.98;;
19547;SDS011;9919;58.014;11.826;2024-01-30T06:00:37;2.42;;;1.50;;
19547;SDS011;9919;58.014;11.826;2024-01-30T06:02:41;1.33;;;1.23;;
19547;SDS011;9919;58.014;11.826;2024-01-30T06:04:42;1.77;;;1.67;;
19547;SDS011;9919;58.014;11.826;2024-01-30T06:06:44;2.63;;;1.80;;
19547;SDS011;9919;58.014;11.826;2024-01-30T06:08:45;1.50;;;1.40;;
19547;SDS011;9919;58.014;11.826;2024-01-30T06:10:49;1.98;;;1.20;;
19547;SDS011;9919;58.014;11.826;2024-01-30T06:12:50;1.75;;;1.65;;
19547;SDS011;9919;58.014;11.826;2024-01-30T06:14:52;1.58;;;1.42;;
19547;SDS011;9919;58.014;11.826;2024-01-30T06:16:56;1.45;;;1.35;;
19547;SDS011;9919;58.014;11.826;2024-01-30T06:18:59;1.70;;;1.60;;
19547;SDS011;9919;58.014;11.826;2024-01-30T06:21:00;1.55;;;1.40;;
19547;SDS011;9919;58.014;11.826;2024-01-30T06:23:02;1.48;;;1.38;;
19547;SDS011;9919;58.014;11.826;2024-01-30T06:25:05;1.55;;;1.30;;
19547;SDS011;9919;58.014;11.826;2024-01-30T06:27:06;1.27;;;1.17;;
19547;SDS011;9919;58.014;11.826;2024-01-30T06:29:08;1.63;;;1.13;;
19547;SDS011;9919;58.014;11.826;2024-01-30T06:31:10;1.25;;;1.15;;
19547;SDS011;9919;58.014;11.826;2024-01-30T06:33:12;1.48;;;1.38;;
19547;SDS011;9919;58.014;11.826;2024-01-30T06:35:13;2.97;;;1.58;;
19547;SDS011;9919;58.014;11.826;2024-01-30T06:37:17;1.52;;;1.42;;
19547;SDS011;9919;58.014;11.826;2024-01-30T06:39:19;1.85;;;1.63;;
19547;SDS011;9919;58.014;11.826;2024-01-30T06:41:21;1.88;;;1.65;;
19547;SDS011;9919;58.014;11.826;2024-01-30T06:43:23;1.08;;;1.02;;
19547;SDS011;9919;58.014;11.826;2024-01-30T06:45:25;1.27;;;1.17;;
19547;SDS011;9919;58.014;11.826;2024-01-30T06:47:27;2.25;;;1.75;;
19547;SDS011;9919;58.014;11.826;2024-01-30T06:49:29;1.65;;;1.55;;
19547;SDS011;9919;58.014;11.826;2024-01-30T06:51:31;1.63;;;1.30;;
19547;SDS011;9919;58.014;11.826;2024-01-30T06:53:32;1.60;;;1.35;;
19547;SDS011;9919;58.014;11.826;2024-01-30T06:55:34;1.17;;;1.17;;
19547;SDS011;9919;58.014;11.826;2024-01-30T06:57:35;2.72;;;1.30;;
19547;SDS011;9919;58.014;11.826;2024-01-30T06:59:37;1.30;;;1.20;;
19547;SDS011;9919;58.014;11.826;2024-01-30T07:01:43;1.85;;;1.60;;
19547;SDS011;9919;58.014;11.826;2024-01-30T07:03:44;1.38;;;1.27;;
19547;SDS011;9919;58.014;11.826;2024-01-30T07:05:46;1.40;;;1.30;;
19547;SDS011;9919;58.014;11.826;2024-01-30T07:07:48;1.52;;;1.42;;
19547;SDS011;9919;58.014;11.826;2024-01-30T07:09:49;0.95;;;0.95;;
19547;SDS011;9919;58.014;11.826;2024-01-30T07:11:56;1.10;;;1.10;;
19547;SDS011;9919;58.014;11.826;2024-01-30T07:14:00;1.45;;;1.35;;
19547;SDS011;9919;58.014;11.826;2024-01-30T07:16:12;1.52;;;1.27;;
19547;SDS011;9919;58.014;11.826;2024-01-30T07:18:15;1.33;;;1.23;;
19547;SDS011;9919;58.014;11.826;2024-01-30T07:20:16;2.00;;;1.42;;
19547;SDS011;9919;58.014;11.826;2024-01-30T07:22:20;1.10;;;1.02;;
19547;SDS011;9919;58.014;11.826;2024-01-30T07:24:22;0.98;;;0.98;;
19547;SDS011;9919;58.014;11.826;2024-01-30T07:26:23;1.23;;;1.15;;
19547;SDS011;9919;58.014;11.826;2024-01-30T07:28:24;1.63;;;1.10;;
19547;SDS011;9919;58.014;11.826;2024-01-30T07:30:26;1.30;;;1.20;;
19547;SDS011;9919;58.014;11.826;2024-01-30T07:32:30;1.42;;;1.17;;
19547;SDS011;9919;58.014;11.826;2024-01-30T07:34:33;1.52;;;1.25;;
19547;SDS011;9919;58.014;11.826;2024-01-30T07:36:36;1.58;;;1.48;;
19547;SDS011;9919;58.014;11.826;2024-01-30T07:38:39;2.20;;;1.17;;
19547;SDS011;9919;58.014;11.826;2024-01-30T07:40:40;1.38;;;1.27;;
19547;SDS011;9919;58.014;11.826;2024-01-30T07:42:43;1.30;;;1.08;;
19547;SDS011;9919;58.014;11.826;2024-01-30T07:44:45;1.60;;;1.17;;
19547;SDS011;9919;58.014;11.826;2024-01-30T07:46:47;1.10;;;1.10;;
19547;SDS011;9919;58.014;11.826;2024-01-30T07:48:49;0.82;;;0.82;;
19547;SDS011;9919;58.014;11.826;2024-01-30T07:50:51;1.23;;;1.13;;
19547;SDS011;9919;58.014;11.826;2024-01-30T07:52:55;1.30;;;1.20;;
19547;SDS011;9919;58.014;11.826;2024-01-30T07:54:57;4.60;;;1.20;;
19547;SDS011;9919;58.014;11.826;2024-01-30T07:56:58;1.25;;;1.15;;
19547;SDS011;9919;58.014;11.826;2024-01-30T07:59:00;1.27;;;1.17;;
19547;SDS011;9919;58.014;11.826;2024-01-30T08:01:02;0.85;;;0.85;;
19547;SDS011;9919;58.014;11.826;2024-01-30T08:03:03;1.60;;;1.50;;
19547;SDS011;9919;58.014;11.826;2024-01-30T08:05:05;1.10;;;1.10;;
19547;SDS011;9919;58.014;11.826;2024-01-30T08:07:07;1.00;;;1.00;;
19547;SDS011;9919;58.014;11.826;2024-01-30T08:09:08;1.80;;;1.20;;
19547;SDS011;9919;58.014;11.826;2024-01-30T08:11:11;1.08;;;1.08;;
19547;SDS011;9919;58.014;11.826;2024-01-30T08:13:13;0.98;;;0.95;;
19547;SDS011;9919;58.014;11.826;2024-01-30T08:15:15;1.35;;;1.15;;
19547;SDS011;9919;58.014;11.826;2024-01-30T08:17:17;1.13;;;1.02;;
19547;SDS011;9919;58.014;11.826;2024-01-30T08:19:19;1.05;;;0.95;;
19547;SDS011;9919;58.014;11.826;2024-01-30T08:21:20;0.90;;;0.90;;
19547;SDS011;9919;58.014;11.826;2024-01-30T08:23:23;1.33;;;1.23;;
19547;SDS011;9919;58.014;11.826;2024-01-30T08:25:25;1.40;;;1.30;;
19547;SDS011;9919;58.014;11.826;2024-01-30T08:27:26;1.02;;;0.98;;
19547;SDS011;9919;58.014;11.826;2024-01-30T08:29:28;1.45;;;1.33;;
19547;SDS011;9919;58.014;11.826;2024-01-30T08:31:29;1.45;;;1.35;;
19547;SDS011;9919;58.014;11.826;2024-01-30T08:33:31;1.70;;;1.27;;
19547;SDS011;9919;58.014;11.826;2024-01-30T08:35:32;0.88;;;0.88;;
19547;SDS011;9919;58.014;11.826;2024-01-30T08:37:34;1.08;;;1.08;;
19547;SDS011;9919;58.014;11.826;2024-01-30T08:39:37;1.42;;;1.30;;
19547;SDS011;9919;58.014;11.826;2024-01-30T08:41:38;1.35;;;1.25;;
19547;SDS011;9919;58.014;11.826;2024-01-30T08:43:40;1.38;;;1.20;;
19547;SDS011;9919;58.014;11.826;2024-01-30T08:45:42;1.20;;;1.10;;
19547;SDS011;9919;58.014;11.826;2024-01-30T08:47:43;0.90;;;0.90;;
19547;SDS011;9919;58.014;11.826;2024-01-30T08:49:44;1.38;;;1.00;;
19547;SDS011;9919;58.014;11.826;2024-01-30T08:51:48;0.90;;;0.90;;
19547;SDS011;9919;58.014;11.826;2024-01-30T08:53:50;2.42;;;1.30;;
19547;SDS011;9919;58.014;11.826;2024-01-30T08:55:52;1.33;;;1.23;;
19547;SDS011;9919;58.014;11.826;2024-01-30T08:57:55;1.85;;;1.50;;
19547;SDS011;9919;58.014;11.826;2024-01-30T08:59:57;1.30;;;1.13;;
19547;SDS011;9919;58.014;11.826;2024-01-30T09:01:58;1.60;;;1.20;;
19547;SDS011;9919;58.014;11.826;2024-01-30T09:03:59;1.33;;;1.23;;
19547;SDS011;9919;58.014;11.826;2024-01-30T09:06:01;0.95;;;0.95;;
19547;SDS011;9919;58.014;11.826;2024-01-30T09:08:03;1.17;;;1.02;;
19547;SDS011;9919;58.014;11.826;2024-01-30T09:10:04;1.25;;;1.02;;
19547;SDS011;9919;58.014;11.826;2024-01-30T09:12:06;1.00;;;1.00;;
19547;SDS011;9919;58.014;11.826;2024-01-30T09:14:09;0.85;;;0.85;;
19547;SDS011;9919;58.014;11.826;2024-01-30T09:16:11;1.30;;;1.20;;
19547;SDS011;9919;58.014;11.826;2024-01-30T09:18:13;1.05;;;1.00;;
19547;SDS011;9919;58.014;11.826;2024-01-30T09:20:15;0.77;;;0.75;;
19547;SDS011;9919;58.014;11.826;2024-01-30T09:22:16;1.60;;;1.05;;
19547;SDS011;9919;58.014;11.826;2024-01-30T09:24:18;1.17;;;1.08;;
19547;SDS011;9919;58.014;11.826;2024-01-30T09:26:20;1.20;;;1.20;;
19547;SDS011;9919;58.014;11.826;2024-01-30T09:28:21;1.65;;;0.90;;
19547;SDS011;9919;58.014;11.826;2024-01-30T09:30:23;2.22;;;0.98;;
19547;SDS011;9919;58.014;11.826;2024-01-30T09:32:24;0.95;;;0.95;;
19547;SDS011;9919;58.014;11.826;2024-01-30T09:34:26;0.98;;;0.80;;
19547;SDS011;9919;58.014;11.826;2024-01-30T09:36:28;1.35;;;0.88;;
19547;SDS011;9919;58.014;11.826;2024-01-30T09:38:33;0.88;;;0.88;;
19547;SDS011;9919;58.014;11.826;2024-01-30T09:40:34;1.98;;;0.98;;
19547;SDS011;9919;58.014;11.826;2024-01-30T09:42:37;1.00;;;1.00;;
19547;SDS011;9919;58.014;11.826;2024-01-30T09:44:40;1.23;;;1.13;;
19547;SDS011;9919;58.014;11.826;2024-01-30T09:46:45;0.90;;;0.90;;
19547;SDS011;9919;58.014;11.826;2024-01-30T09:48:49;1.15;;;1.10;;
19547;SDS011;9919;58.014;11.826;2024-01-30T09:50:51;0.95;;;0.90;;
19547;SDS011;9919;58.014;11.826;2024-01-30T09:52:53;1.08;;;1.02;;
19547;SDS011;9919;58.014;11.826;2024-01-30T09:54:56;0.98;;;0.88;;
19547;SDS011;9919;58.014;11.826;2024-01-30T09:57:01;0.70;;;0.70;;
19547;SDS011;9919;58.014;11.826;2024-01-30T09:59:02;0.77;;;0.77;;
19547;SDS011;9919;58.014;11.826;2024-01-30T10:01:05;0.90;;;0.80;;
19547;SDS011;9919;58.014;11.826;2024-01-30T10:03:06;0.80;;;0.80;;
19547;SDS011;9919;58.014;11.826;2024-01-30T10:05:08;0.93;;;0.90;;
19547;SDS011;9919;58.014;11.826;2024-01-30T10:07:11;1.10;;;1.08;;
19547;SDS011;9919;58.014;11.826;2024-01-30T10:09:12;1.25;;;0.90;;
19547;SDS011;9919;58.014;11.826;2024-01-30T10:11:14;0.88;;;0.88;;
19547;SDS011;9919;58.014;11.826;2024-01-30T10:13:16;1.52;;;1.15;;
19547;SDS011;9919;58.014;11.826;2024-01-30T10:15:18;0.82;;;0.82;;
19547;SDS011;9919;58.014;11.826;2024-01-30T10:17:21;1.30;;;1.20;;
19547;SDS011;9919;58.014;11.826;2024-01-30T10:19:25;2.30;;;0.77;;
19547;SDS011;9919;58.014;11.826;2024-01-30T10:21:27;1.10;;;1.00;;
19547;SDS011;9919;58.014;11.826;2024-01-30T10:23:32;1.05;;;0.85;;
19547;SDS011;9919;58.014;11.826;2024-01-30T10:25:33;1.40;;;1.27;;
19547;SDS011;9919;58.014;11.826;2024-01-30T10:27:36;1.40;;;1.30;;
19547;SDS011;9919;58.014;11.826;2024-01-30T10:29:39;1.52;;;0.90;;
19547;SDS011;9919;58.014;11.826;2024-01-30T10:31:41;1.00;;;1.00;;
19547;SDS011;9919;58.014;11.826;2024-01-30T10:33:43;1.17;;;1.17;;
19547;SDS011;9919;58.014;11.826;2024-01-30T10:35:46;1.05;;;0.98;;
19547;SDS011;9919;58.014;11.826;2024-01-30T10:37:47;1.38;;;1.25;;
19547;SDS011;9919;58.014;11.826;2024-01-30T10:39:49;0.85;;;0.85;;
19547;SDS011;9919;58.014;11.826;2024-01-30T10:41:51;0.85;;;0.85;;
19547;SDS011;9919;58.014;11.826;2024-01-30T10:44:08;1.70;;;1.20;;
19547;SDS011;9919;58.014;11.826;2024-01-30T10:48:22;1.10;;;1.00;;
19547;SDS011;9919;58.014;11.826;2024-01-30T10:50:27;1.35;;;1.25;;
19547;SDS011;9919;58.014;11.826;2024-01-30T10:52:32;1.45;;;1.20;;
19547;SDS011;9919;58.014;11.826;2024-01-30T10:54:34;1.35;;;1.00;;
19547;SDS011;9919;58.014;11.826;2024-01-30T10:56:37;1.08;;;0.98;;
19547;SDS011;9919;58.014;11.826;2024-01-30T10:58:40;1.50;;;1.15;;
19547;SDS011;9919;58.014;11.826;2024-01-30T11:00:41;0.90;;;0.90;;
19547;SDS011;9919;58.014;11.826;2024-01-30T11:02:44;1.10;;;1.00;;
19547;SDS011;9919;58.014;11.826;2024-01-30T11:04:46;1.88;;;1.08;;
19547;SDS011;9919;58.014;11.826;2024-01-30T11:06:49;1.58;;;1.00;;
19547;SDS011;9919;58.014;11.826;2024-01-30T11:09:00;1.35;;;1.25;;
19547;SDS011;9919;58.014;11.826;2024-01-30T11:11:09;1.10;;;0.90;;
19547;SDS011;9919;58.014;11.826;2024-01-30T11:13:13;0.85;;;0.85;;
19547;SDS011;9919;58.014;11.826;2024-01-30T11:15:17;0.77;;;0.77;;
19547;SDS011;9919;58.014;11.826;2024-01-30T11:17:22;1.25;;;0.98;;
19547;SDS011;9919;58.014;11.826;2024-01-30T11:19:30;1.55;;;1.08;;
19547;SDS011;9919;58.014;11.826;2024-01-30T11:21:32;1.00;;;0.90;;
19547;SDS011;9919;58.014;11.826;2024-01-30T11:23:33;3.20;;;1.30;;
19547;SDS011;9919;58.014;11.826;2024-01-30T11:25:36;1.13;;;1.00;;
19547;SDS011;9919;58.014;11.826;2024-01-30T11:27:37;0.98;;;0.95;;
19547;SDS011;9919;58.014;11.826;2024-01-30T11:29:40;1.52;;;1.17;;
19547;SDS011;9919;58.014;11.826;2024-01-30T11:31:51;1.23;;;1.13;;
19547;SDS011;9919;58.014;11.826;2024-01-30T11:33:56;1.30;;;1.20;;
19547;SDS011;9919;58.014;11.826;2024-01-30T11:35:59;1.63;;;1.38;;
19547;SDS011;9919;58.014;11.826;2024-01-30T11:38:01;1.52;;;1.20;;
19547;SDS011;9919;58.014;11.826;2024-01-30T11:40:03;0.75;;;0.75;;
19547;SDS011;9919;58.014;11.826;2024-01-30T11:42:06;1.17;;;1.08;;
19547;SDS011;9919;58.014;11.826;2024-01-30T11:44:08;1.00;;;1.00;;
19547;SDS011;9919;58.014;11.826;2024-01-30T11:46:10;0.80;;;0.80;;
19547;SDS011;9919;58.014;11.826;2024-01-30T11:48:12;1.02;;;0.98;;
19547;SDS011;9919;58.014;11.826;2024-01-30T11:50:14;0.90;;;0.90;;
19547;SDS011;9919;58.014;11.826;2024-01-30T11:52:17;1.77;;;0.70;;
19547;SDS011;9919;58.014;11.826;2024-01-30T11:54:18;0.88;;;0.88;;
19547;SDS011;9919;58.014;11.826;2024-01-30T11:56:21;1.42;;;1.10;;
19547;SDS011;9919;58.014;11.826;2024-01-30T11:58:27;1.00;;;1.00;;
19547;SDS011;9919;58.014;11.826;2024-01-30T12:00:28;1.20;;;1.10;;
19547;SDS011;9919;58.014;11.826;2024-01-30T12:02:31;1.10;;;1.00;;
19547;SDS011;9919;58.014;11.826;2024-01-30T12:04:32;1.00;;;1.00;;
19547;SDS011;9919;58.014;11.826;2024-01-30T12:06:35;1.08;;;1.02;;
19547;SDS011;9919;58.014;11.826;2024-01-30T12:08:37;1.33;;;1.08;;
19547;SDS011;9919;58.014;11.826;2024-01-30T12:10:38;0.90;;;0.90;;
19547;SDS011;9919;58.014;11.826;2024-01-30T12:12:40;1.08;;;0.90;;
19547;SDS011;9919;58.014;11.826;2024-01-30T12:14:43;0.85;;;0.85;;
19547;SDS011;9919;58.014;11.826;2024-01-30T12:16:48;0.90;;;0.90;;
19547;SDS011;9919;58.014;11.826;2024-01-30T12:18:58;0.80;;;0.73;;